Time;durP1;ratioP1;P1;durP2;ratioP2;P2;SDS_P1;SDS_P2;PMS_P1;PMS_P2;Temp;Humidity;BMP_temperature;BMP_pressure;BME280_temperature;BME280_humidity;BME280_pressure;Samples;Min_cycle;Max_cycle;Signal;HPM_P1;HPM_P2
2022/05/29 00:02:14;;;;;;;;;;;;;;;16.19;41.06;100266.75;5062930;28;834;-56
2022/05/29 00:04:39;;;;;;;;;;;;;;;16.11;41.08;100277.50;5061398;28;1969;-56
2022/05/29 00:07:05;;;;;;;;;;;;;;;16.16;40.92;100266.47;5058856;28;865;-56
2022/05/29 00:09:31;;;;;;;;;;;;;;;16.18;40.77;100253.31;5064395;28;863;-56
2022/05/29 00:11:58;;;;;;;;;;;;;;;16.14;40.80;100261.28;5039360;28;996;-56
2022/05/29 00:14:23;;;;;;;;;;;;;;;16.14;41.15;100268.72;5058480;28;1176;-56
2022/05/29 00:16:48;;;;;;;;;;;;;;;16.20;41.02;100268.41;5064364;28;894;-56
2022/05/29 00:19:14;;;;;;;;;;;;;;;16.16;40.90;100261.84;5058459;28;869;-56
2022/05/29 00:21:40;;;;;;;;;;;;;;;16.16;41.00;100250.88;5058302;28;786;-56
2022/05/29 00:24:06;;;;;;;;;;;;;;;16.08;41.10;100248.72;5057841;28;1902;-57
2022/05/29 00:26:31;;;;;;;;;;;;;;;16.16;40.78;100250.88;5040337;28;754;-57
2022/05/29 00:28:57;;;;;;;;;;;;;;;16.15;40.98;100242.94;5039408;28;847;-57
2022/05/29 00:31:23;;;;;;;;;;;;;;;16.17;40.65;100241.53;5067547;28;916;-57
2022/05/29 00:33:48;;;;;;;;;;;;;;;16.08;41.14;100238.56;5057950;28;762;-57
2022/05/29 00:36:14;;;;;;;;;;;;;;;16.03;41.21;100230.38;5057976;28;786;-57
2022/05/29 00:38:40;;;;;;;;;;;;;;;16.13;40.94;100231.41;5057554;28;1048;-57
2022/05/29 00:41:17;;;;;;;;;;;;;;;16.07;40.75;100250.66;5057602;28;751;-57
2022/05/29 00:43:43;;;;;;;;;;;;;;;16.05;41.01;100244.63;5063601;28;1887;-57
2022/05/29 00:46:09;;;;;;;;;;;;;;;16.07;41.04;100241.59;5062904;28;705;-57
2022/05/29 00:48:34;;;;;;;;;;;;;;;16.11;40.80;100241.84;5057151;28;862;-56
2022/05/29 00:51:01;;;;;;;;;;;;;;;16.06;40.79;100240.78;5057507;28;798;-57
2022/05/29 00:53:27;;;;;;;;;;;;;;;16.05;40.93;100246.53;5057305;28;962;-57
2022/05/29 00:55:55;;;;;;;;;;;;;;;16.00;41.06;100252.84;5059128;28;838;-57
2022/05/29 00:58:21;;;;;;;;;;;;;;;16.05;40.77;100239.13;5043626;28;858;-57
2022/05/29 01:00:48;;;;;;;;;;;;;;;16.05;40.86;100246.53;5042304;28;985;-56
2022/05/29 01:03:13;;;;;;;;;;;;;;;16.06;40.69;100240.78;5057299;28;1902;-57
2022/05/29 01:05:39;;;;;;;;;;;;;;;16.09;40.70;100242.13;5056901;28;846;-57
2022/05/29 01:08:09;;;;;;;;;;;;;;;15.97;40.76;100241.66;5058045;28;902;-57
2022/05/29 01:10:40;;;;;;;;;;;;;;;16.00;40.98;100230.09;5061349;28;911;-57
2022/05/29 01:13:14;;;;;;;;;;;;;;;16.01;40.83;100238.06;5057375;28;793;-57
2022/05/29 01:15:45;;;;;;;;;;;;;;;16.06;40.89;100224.31;5058354;28;1046;-57
2022/05/29 01:18:29;;;;;;;;;;;;;;;16.01;41.11;100229.00;5056469;28;1415;-56
2022/05/29 01:21:02;;;;;;;;;;;;;;;16.05;40.99;100238.31;5056501;28;823;-57
2022/05/29 01:23:28;;;;;;;;;;;;;;;16.12;40.88;100235.25;5058342;28;1913;-57
2022/05/29 01:25:56;;;;;;;;;;;;;;;16.01;41.18;100237.25;5057730;28;835;-57
2022/05/29 01:28:25;;;;;;;;;;;;;;;16.06;41.11;100246.25;5056452;28;834;-57
2022/05/29 01:30:53;;;;;;;;;;;;;;;16.06;41.01;100270.09;5056967;28;886;-56
2022/05/29 01:33:28;;;;;;;;;;;;;;;16.02;41.09;100267.13;5038811;28;750;-57
2022/05/29 01:36:13;;;;;;;;;;;;;;;16.05;40.85;100261.06;5056506;28;729;-56
2022/05/29 01:38:46;;;;;;;;;;;;;;;16.05;40.93;100263.81;5056325;28;996;-56
2022/05/29 01:41:12;;;;;;;;;;;;;;;16.10;41.02;100262.16;5056874;28;797;-56
2022/05/29 01:43:41;;;;;;;;;;;;;;;16.02;40.95;100258.91;5056804;28;1994;-56
2022/05/29 01:46:27;;;;;;;;;;;;;;;16.04;40.70;100264.91;5043123;28;770;-57
2022/05/29 01:49:13;;;;;;;;;;;;;;;16.05;41.07;100276.72;5039181;28;802;-57
2022/05/29 01:51:52;;;;;;;;;;;;;;;16.03;40.97;100266.03;5071522;28;731;-57
2022/05/29 01:54:32;;;;;;;;;;;;;;;16.08;40.83;100271.47;5075508;28;894;-56
2022/05/29 01:57:08;;;;;;;;;;;;;;;16.07;40.83;100286.31;5057716;28;790;-56
2022/05/29 01:59:46;;;;;;;;;;;;;;;16.03;41.00;100279.75;5057579;28;850;-56
2022/05/29 02:02:13;;;;;;;;;;;;;;;16.04;40.79;100270.38;5058683;28;971;-56
2022/05/29 02:04:39;;;;;;;;;;;;;;;16.03;41.11;100268.78;5037978;28;1910;-57
2022/05/29 02:09:54;;;;;;;;;;;;;;;16.02;41.00;100260.81;5041225;28;766;-57
2022/05/29 02:12:21;;;;;;;;;;;;;;;16.07;41.00;100269.84;5041976;28;797;-57
2022/05/29 02:14:49;;;;;;;;;;;;;;;16.04;41.00;100253.94;5038001;28;1116;-56
2022/05/29 02:17:16;;;;;;;;;;;;;;;16.04;40.99;100264.91;5036447;28;1103;-56
2022/05/29 02:19:44;;;;;;;;;;;;;;;16.03;40.91;100254.22;5035217;28;778;-56
2022/05/29 02:22:10;;;;;;;;;;;;;;;16.03;41.04;100257.81;5037129;28;841;-57
2022/05/29 02:24:37;;;;;;;;;;;;;;;15.99;40.87;100247.66;5039053;28;1938;-56
2022/05/29 02:27:03;;;;;;;;;;;;;;;15.97;41.26;100234.22;5046980;28;766;-56
2022/05/29 02:29:28;;;;;;;;;;;;;;;15.97;40.94;100239.72;5040514;28;726;-56
2022/05/29 02:31:54;;;;;;;;;;;;;;;15.99;41.17;100245.75;5045428;28;845;-56
2022/05/29 02:34:19;;;;;;;;;;;;;;;16.01;41.31;100268.22;5040292;28;746;-57
2022/05/29 02:36:52;;;;;;;;;;;;;;;16.00;41.16;100258.34;5040277;28;1474;-56
2022/05/29 02:39:23;;;;;;;;;;;;;;;16.00;41.09;100263.03;5044846;28;912;-57
2022/05/29 02:41:49;;;;;;;;;;;;;;;16.04;41.07;100269.59;5039834;28;841;-56
2022/05/29 02:44:23;;;;;;;;;;;;;;;16.01;40.99;100264.66;5040100;28;1906;-57
2022/05/29 02:47:00;;;;;;;;;;;;;;;16.04;41.02;100269.59;5043117;28;766;-57
2022/05/29 02:49:28;;;;;;;;;;;;;;;15.99;41.01;100278.66;5039649;28;827;-57
2022/05/29 02:51:55;;;;;;;;;;;;;;;16.02;41.10;100272.59;5039439;28;944;-56
2022/05/29 02:54:27;;;;;;;;;;;;;;;15.97;41.25;100269.88;5041311;28;852;-57
2022/05/29 02:56:53;;;;;;;;;;;;;;;15.96;41.09;100276.47;5038236;28;802;-56
2022/05/29 02:59:19;;;;;;;;;;;;;;;15.98;41.02;100281.69;5039491;28;1472;-56
2022/05/29 03:01:48;;;;;;;;;;;;;;;15.98;40.66;100282.50;5040503;28;830;-60
2022/05/29 03:04:33;;;;;;;;;;;;;;;16.14;41.36;100279.69;5044164;28;1913;-58
2022/05/29 03:07:02;;;;;;;;;;;;;;;16.29;42.60;100279.59;5052544;28;826;-58
2022/05/29 03:09:33;;;;;;;;;;;;;;;16.49;43.65;100294.28;5058107;28;911;-60
2022/05/29 03:11:58;;;;;;;;;;;;;;;16.61;44.16;100292.00;5058489;28;866;-58
2022/05/29 03:14:42;;;;;;;;;;;;;;;16.79;44.63;100306.13;5063336;28;1170;-58
2022/05/29 03:17:34;;;;;;;;;;;;;;;16.84;44.78;100303.38;5069357;28;1104;-56
2022/05/29 03:20:05;;;;;;;;;;;;;;;16.97;45.61;100311.00;5038756;28;1084;-60
2022/05/29 03:22:34;;;;;;;;;;;;;;;17.00;45.81;100312.31;5077330;28;735;-60
2022/05/29 03:25:01;;;;;;;;;;;;;;;17.05;45.82;100302.09;5076962;28;1905;-59
2022/05/29 03:27:31;;;;;;;;;;;;;;;17.10;46.05;100295.75;5077079;28;773;-58
2022/05/29 03:30:15;;;;;;;;;;;;;;;17.20;45.93;100281.91;5065685;28;1082;-58
2022/05/29 03:32:40;;;;;;;;;;;;;;;17.27;46.00;100281.59;5073648;28;1260;-58
2022/05/29 03:35:36;;;;;;;;;;;;;;;17.28;45.50;100299.72;5068502;28;1214;-57
2022/05/29 03:38:02;;;;;;;;;;;;;;;17.13;44.61;100330.91;5055671;28;1399;-58
2022/05/29 03:40:28;;;;;;;;;;;;;;;17.02;43.92;100327.41;5057777;28;751;-59
2022/05/29 03:42:53;;;;;;;;;;;;;;;17.02;43.34;100343.06;5047387;28;1906;-60
2022/05/29 03:45:19;;;;;;;;;;;;;;;16.88;42.95;100343.72;5058504;28;892;-57
2022/05/29 03:47:44;;;;;;;;;;;;;;;16.91;42.63;100356.06;5064477;28;1112;-58
2022/05/29 03:50:11;;;;;;;;;;;;;;;16.82;42.42;100350.34;5057588;28;781;-59
2022/05/29 03:52:36;;;;;;;;;;;;;;;16.79;42.06;100339.09;5065854;28;1444;-60
2022/05/29 03:55:03;;;;;;;;;;;;;;;16.80;41.88;100340.75;5068988;28;1289;-64
2022/05/29 03:57:28;;;;;;;;;;;;;;;16.79;41.58;100331.69;5072375;28;1420;-62
2022/05/29 03:59:53;;;;;;;;;;;;;;;16.71;41.64;100338.59;5053079;28;881;-63
2022/05/29 04:02:19;;;;;;;;;;;;;;;16.68;41.53;100343.84;5064760;28;1313;-62
2022/05/29 04:04:44;;;;;;;;;;;;;;;16.62;41.38;100347.72;5057900;28;1980;-62
2022/05/29 04:07:10;;;;;;;;;;;;;;;16.62;41.39;100348.56;5063120;28;861;-62
2022/05/29 04:12:19;;;;;;;;;;;;;;;16.62;41.28;100358.69;5060545;28;1227;-63
2022/05/29 04:14:45;;;;;;;;;;;;;;;16.61;41.31;100371.63;4997178;28;1214524;-61
2022/05/29 04:17:14;;;;;;;;;;;;;;;16.63;41.00;100363.09;5067480;28;888;-62
2022/05/29 04:19:40;;;;;;;;;;;;;;;16.55;41.22;100359.00;5065352;28;881;-60
2022/05/29 04:22:06;;;;;;;;;;;;;;;16.60;40.91;100373.53;5039470;28;850;-61
2022/05/29 04:24:32;;;;;;;;;;;;;;;16.56;41.08;100396.34;5057884;28;1910;-61
2022/05/29 04:26:57;;;;;;;;;;;;;;;16.52;41.03;100407.06;5058128;28;834;-59
2022/05/29 04:29:23;;;;;;;;;;;;;;;16.53;41.26;100424.34;5057959;28;797;-62
2022/05/29 04:34:32;;;;;;;;;;;;;;;16.47;41.41;100414.50;5057750;28;751;-63
2022/05/29 04:36:58;;;;;;;;;;;;;;;16.49;41.37;100426.03;5058465;28;781;-59
2022/05/29 04:39:24;;;;;;;;;;;;;;;16.51;41.28;100410.06;5057829;28;828;-56
2022/05/29 04:41:49;;;;;;;;;;;;;;;16.50;41.53;100408.47;5039760;28;1453;-60
2022/05/29 04:44:15;;;;;;;;;;;;;;;16.56;41.21;100407.31;5057359;28;1964;-60
2022/05/29 04:46:40;;;;;;;;;;;;;;;16.63;41.15;100416.06;5065161;28;973;-60
2022/05/29 04:49:06;;;;;;;;;;;;;;;16.57;41.46;100423.50;5057832;28;826;-59
2022/05/29 04:51:31;;;;;;;;;;;;;;;16.54;41.46;100428.75;5074767;28;864;-57
2022/05/29 04:53:56;;;;;;;;;;;;;;;16.55;41.54;100442.19;5076259;28;885;-58
2022/05/29 04:56:22;;;;;;;;;;;;;;;16.53;41.67;100440.81;5076820;28;857;-58
2022/05/29 04:58:47;;;;;;;;;;;;;;;16.52;41.40;100433.69;5066336;28;799;-59
2022/05/29 05:01:13;;;;;;;;;;;;;;;16.57;41.60;100441.91;5062952;28;882;-60
2022/05/29 05:03:38;;;;;;;;;;;;;;;16.58;41.35;100449.03;5072693;28;1906;-59
2022/05/29 05:06:04;;;;;;;;;;;;;;;16.62;41.44;100427.31;5076262;28;826;-59
2022/05/29 05:08:29;;;;;;;;;;;;;;;16.56;41.18;100441.09;5076565;28;826;-58
2022/05/29 05:10:55;;;;;;;;;;;;;;;16.60;41.25;100441.34;5069648;28;830;-58
2022/05/29 05:13:20;;;;;;;;;;;;;;;16.57;41.61;100444.66;5061174;28;1104;-58
2022/05/29 05:15:46;;;;;;;;;;;;;;;16.55;41.69;100449.59;5060569;28;1240;-59
2022/05/29 05:18:11;;;;;;;;;;;;;;;16.58;41.44;100454.53;5057253;28;865;-60
2022/05/29 05:20:37;;;;;;;;;;;;;;;16.55;41.20;100460.56;5057177;28;838;-59
2022/05/29 05:23:03;;;;;;;;;;;;;;;16.57;41.10;100455.63;5060669;28;1965;-60
2022/05/29 05:25:28;;;;;;;;;;;;;;;16.58;41.36;100455.34;5057041;28;769;-61
2022/05/29 05:27:53;;;;;;;;;;;;;;;16.71;40.90;100453.91;5056961;28;807;-59
2022/05/29 05:30:19;;;;;;;;;;;;;;;16.63;41.08;100459.16;5072690;28;960;-59
2022/05/29 05:32:44;;;;;;;;;;;;;;;16.63;41.35;100457.22;5075335;28;746;-57
2022/05/29 05:35:10;;;;;;;;;;;;;;;16.58;41.39;100449.03;5075960;28;809;-57
2022/05/29 05:37:36;;;;;;;;;;;;;;;16.58;41.35;100446.31;5059601;28;1299;-57
2022/05/29 05:40:05;;;;;;;;;;;;;;;16.58;41.42;100443.56;5062563;28;1397;-56
2022/05/29 05:42:31;;;;;;;;;;;;;;;16.55;41.13;100447.69;5065656;28;1159;-58
2022/05/29 05:44:56;;;;;;;;;;;;;;;16.64;41.12;100463.56;5065338;28;1917;-57
2022/05/29 05:47:22;;;;;;;;;;;;;;;16.62;40.94;100465.75;5069536;28;1261;-57
2022/05/29 05:49:50;;;;;;;;;;;;;;;16.58;41.03;100471.00;5047796;28;1990;-58
2022/05/29 05:52:16;;;;;;;;;;;;;;;16.63;41.10;100489.38;5065492;28;1231;-57
2022/05/29 05:54:42;;;;;;;;;;;;;;;16.56;41.07;100492.41;5069417;28;1237;-59
2022/05/29 05:57:07;;;;;;;;;;;;;;;16.62;41.14;100491.31;5060658;28;1329;-57
2022/05/29 05:59:36;;;;;;;;;;;;;;;16.63;41.24;100492.94;5065090;28;833;-57
2022/05/29 06:02:01;;;;;;;;;;;;;;;16.63;41.30;100492.94;5056499;28;890;-56
2022/05/29 06:04:27;;;;;;;;;;;;;;;16.61;41.30;100486.91;5057580;28;1914;-57
2022/05/29 06:06:53;;;;;;;;;;;;;;;16.59;41.19;100476.22;5059586;28;955;-56
2022/05/29 06:09:20;;;;;;;;;;;;;;;16.56;41.29;100479.53;5056008;28;881;-56
2022/05/29 06:11:46;;;;;;;;;;;;;;;16.55;41.22;100480.63;5037391;28;923;-56
2022/05/29 06:14:11;;;;;;;;;;;;;;;16.55;41.32;100483.38;5066469;28;1032;-56
2022/05/29 06:16:37;;;;;;;;;;;;;;;16.53;41.27;100473.75;5059245;28;846;-57
2022/05/29 06:19:04;;;;;;;;;;;;;;;16.56;41.18;100481.44;5056039;28;734;-57
2022/05/29 06:21:30;;;;;;;;;;;;;;;16.49;41.22;100494.63;5056530;28;890;-57
2022/05/29 06:23:55;;;;;;;;;;;;;;;16.56;41.28;100489.66;5055864;28;1906;-56
2022/05/29 06:26:21;;;;;;;;;;;;;;;16.50;41.30;100490.78;5056089;28;843;-57
2022/05/29 06:28:46;;;;;;;;;;;;;;;16.53;41.15;100490.22;5059840;28;1204;-58
2022/05/29 06:31:12;;;;;;;;;;;;;;;16.54;41.28;100491.88;5062991;28;870;-57
2022/05/29 06:33:37;;;;;;;;;;;;;;;16.49;41.19;100483.66;5065354;28;1297;-56
2022/05/29 06:36:13;;;;;;;;;;;;;;;16.55;41.13;100475.13;5056125;28;909;-58
2022/05/29 06:38:38;;;;;;;;;;;;;;;16.56;41.27;100467.69;5056058;28;762;-57
2022/05/29 06:41:05;;;;;;;;;;;;;;;16.57;41.76;100464.66;5067626;28;1497;-57
2022/05/29 06:43:30;;;;;;;;;;;;;;;16.64;41.35;100469.06;5074526;28;1893;-56
2022/05/29 06:45:59;;;;;;;;;;;;;;;16.52;41.85;100463.88;5043851;28;858;-56
2022/05/29 06:48:24;;;;;;;;;;;;;;;16.53;41.60;100466.34;5056499;28;950;-57
2022/05/29 06:50:49;;;;;;;;;;;;;;;16.74;42.33;100469.81;5055580;28;866;-58
2022/05/29 06:53:15;;;;;;;;;;;;;;;16.88;43.74;100464.56;5058038;28;1251;-58
2022/05/29 06:55:40;;;;;;;;;;;;;;;16.77;43.32;100455.53;5064998;28;1191;-57
2022/05/29 06:58:06;;;;;;;;;;;;;;;16.74;43.06;100461.56;5062079;28;1338;-59
2022/05/29 07:08:43;;;;;;;;;;;;;;;16.68;42.16;100416.03;5068023;28;1310;-59
2022/05/29 07:11:10;;;;;;;;;;;;;;;16.81;41.88;100402.78;5064359;28;1226;-58
2022/05/29 07:13:36;;;;;;;;;;;;;;;16.75;41.82;100408.31;5052773;28;1266;-57
2022/05/29 07:16:01;;;;;;;;;;;;;;;16.67;42.00;100399.84;5052520;28;1282;-57
2022/05/29 07:18:27;;;;;;;;;;;;;;;16.68;41.74;100402.31;5064858;28;1067;-56
2022/05/29 07:20:52;;;;;;;;;;;;;;;16.71;41.85;100398.19;5071611;28;1058;-56
2022/05/29 07:23:18;;;;;;;;;;;;;;;16.68;41.70;100398.75;5076001;28;1905;-57
2022/05/29 07:25:43;;;;;;;;;;;;;;;16.76;41.67;100389.94;5067679;28;1250;-57
2022/05/29 07:28:10;;;;;;;;;;;;;;;16.69;42.10;100382.00;5063199;28;1262;-57
2022/05/29 07:30:36;;;;;;;;;;;;;;;16.76;41.98;100371.53;5066865;28;1210;-58
2022/05/29 07:33:01;;;;;;;;;;;;;;;16.71;41.99;100355.06;5063920;28;1210;-59
2022/05/29 07:35:27;;;;;;;;;;;;;;;16.80;41.83;100330.56;5062838;28;914;-57
2022/05/29 07:37:52;;;;;;;;;;;;;;;16.69;42.00;100309.78;5064389;28;1467;-58
2022/05/29 07:40:18;;;;;;;;;;;;;;;16.75;41.55;100290.25;5059135;28;968;-57
2022/05/29 07:45:27;;;;;;;;;;;;;;;16.63;41.11;100218.41;5071828;28;1981;-56
2022/05/29 07:47:53;;;;;;;;;;;;;;;16.64;41.50;100233.78;5075386;28;897;-57
2022/05/29 07:50:19;;;;;;;;;;;;;;;16.61;41.32;100234.38;5078092;28;853;-56
2022/05/29 07:52:45;;;;;;;;;;;;;;;16.54;41.32;100190.78;5077863;28;903;-57
2022/05/29 07:55:10;;;;;;;;;;;;;;;16.53;41.25;100166.38;5064433;28;814;-57
2022/05/29 07:57:36;;;;;;;;;;;;;;;16.63;41.08;100201.94;5062228;28;1320;-59
2022/05/29 08:00:02;;;;;;;;;;;;;;;16.52;41.00;100222.34;5058707;28;828;-59
2022/05/29 08:02:37;;;;;;;;;;;;;;;16.47;40.85;100228.72;5074519;28;741;-58
2022/05/29 08:05:02;;;;;;;;;;;;;;;16.47;40.75;100217.72;5077694;28;1910;-59
2022/05/29 08:07:28;;;;;;;;;;;;;;;16.44;40.71;100226.53;5077561;28;860;-59
2022/05/29 08:09:53;;;;;;;;;;;;;;;16.46;40.84;100226.25;5061770;28;855;-59
2022/05/29 08:12:19;;;;;;;;;;;;;;;16.50;40.82;100227.31;5058670;28;748;-61
2022/05/29 08:14:44;;;;;;;;;;;;;;;16.52;40.52;100231.41;5058225;28;1160;-60
2022/05/29 08:17:10;;;;;;;;;;;;;;;16.40;40.63;100237.25;5059788;28;850;-59
2022/05/29 08:19:36;;;;;;;;;;;;;;;16.32;41.01;100237.06;5056872;28;863;-58
2022/05/29 08:22:01;;;;;;;;;;;;;;;16.37;40.75;100229.59;5063261;28;1184;-60
2022/05/29 08:32:38;;;;;;;;;;;;;;;16.33;40.86;100261.47;5065329;28;1194;-59
2022/05/29 08:35:04;;;;;;;;;;;;;;;16.35;40.63;100267.47;5066025;28;1233;-58
2022/05/29 08:37:29;;;;;;;;;;;;;;;16.31;40.30;100277.38;5070125;28;1297;-58
2022/05/29 08:39:55;;;;;;;;;;;;;;;16.36;40.20;100291.06;5065943;28;1234;-57
2022/05/29 08:42:21;;;;;;;;;;;;;;;16.30;40.54;100300.44;5067561;28;1196;-56
2022/05/29 08:44:50;;;;;;;;;;;;;;;16.18;40.48;100327.38;5049723;28;1914;-57
2022/05/29 08:47:16;;;;;;;;;;;;;;;16.32;40.40;100333.06;5066396;28;1056;-56
2022/05/29 08:49:43;;;;;;;;;;;;;;;16.33;40.44;100327.31;5051211;28;1083;-56
2022/05/29 08:52:08;;;;;;;;;;;;;;;16.28;40.07;100318.28;5063807;28;1198;-58
2022/05/29 08:54:50;;;;;;;;;;;;;;;16.31;40.35;100302.06;5057400;28;878;-56
2022/05/29 08:57:25;;;;;;;;;;;;;;;16.29;40.27;100293.31;5052114;28;978;-58
2022/05/29 09:00:00;;;;;;;;;;;;;;;16.23;40.39;100298.00;5050309;28;770;-56
2022/05/29 09:02:41;;;;;;;;;;;;;;;16.28;40.36;100296.34;5060001;28;917;-56
2022/05/29 09:05:08;;;;;;;;;;;;;;;16.31;40.38;100301.25;5043013;28;1997;-57
2022/05/29 09:07:34;;;;;;;;;;;;;;;16.26;40.13;100310.34;5052089;28;1304;-58
2022/05/29 09:10:01;;;;;;;;;;;;;;;16.16;40.66;100316.69;5053409;28;1319;-58
2022/05/29 09:12:46;;;;;;;;;;;;;;;16.22;40.34;100334.75;5052072;28;997;-58
2022/05/29 09:15:12;;;;;;;;;;;;;;;16.19;40.49;100342.75;5068136;28;1161;-56
2022/05/29 09:17:50;;;;;;;;;;;;;;;16.24;40.43;100353.69;5065631;28;1120;-61
2022/05/29 09:20:32;;;;;;;;;;;;;;;16.18;40.48;100343.84;5061795;28;1345;-56
2022/05/29 09:22:59;;;;;;;;;;;;;;;16.25;40.40;100352.59;5044613;28;837;-58
2022/05/29 09:25:24;;;;;;;;;;;;;;;16.24;40.49;100365.50;5072683;28;1918;-57
2022/05/29 09:27:50;;;;;;;;;;;;;;;16.27;40.27;100366.03;5058188;28;977;-57
2022/05/29 09:30:15;;;;;;;;;;;;;;;16.15;40.38;100363.63;5059465;28;1226;-58
2022/05/29 09:32:43;;;;;;;;;;;;;;;16.15;40.64;100363.63;5070200;28;1248;-58
2022/05/29 09:35:12;;;;;;;;;;;;;;;16.20;40.23;100352.59;5049822;28;1242;-58
2022/05/29 09:37:47;;;;;;;;;;;;;;;16.25;40.20;100358.06;5070642;28;1305;-58
2022/05/29 09:40:20;;;;;;;;;;;;;;;16.13;40.61;100374.88;5066199;28;1159;-58
2022/05/29 09:42:48;;;;;;;;;;;;;;;16.15;40.19;100369.09;5051065;28;1385;-58
2022/05/29 09:45:19;;;;;;;;;;;;;;;16.11;40.60;100379.81;5063175;28;1902;-57
2022/05/29 09:50:48;;;;;;;;;;;;;;;16.07;40.56;100378.72;5065249;28;1265;-58
2022/05/29 09:53:15;;;;;;;;;;;;;;;16.16;40.44;100387.19;5068402;28;1214;-57
2022/05/29 09:55:47;;;;;;;;;;;;;;;16.22;40.23;100383.34;5066508;28;1282;-58
2022/05/29 09:58:14;;;;;;;;;;;;;;;16.15;40.25;100380.06;5067337;28;1040;-58
2022/05/29 10:00:42;;;;;;;;;;;;;;;16.14;40.31;100383.91;5046673;28;1422;-57
2022/05/29 10:03:09;;;;;;;;;;;;;;;16.11;40.27;100395.44;5049869;28;1297;-57
2022/05/29 10:05:36;;;;;;;;;;;;;;;16.09;40.39;100395.72;5066608;28;1080;-56
2022/05/29 10:08:30;;;;;;;;;;;;;;;16.15;40.35;100391.84;5065773;28;1342;-58
2022/05/29 10:10:56;;;;;;;;;;;;;;;16.32;40.77;100394.25;5064897;28;1223;-58
2022/05/29 10:13:38;;;;;;;;;;;;;;;16.22;40.75;100395.13;5049829;28;1237;-60
2022/05/29 10:16:03;;;;;;;;;;;;;;;16.19;40.66;100403.91;5058312;28;1246;-60
2022/05/29 10:18:31;;;;;;;;;;;;;;;16.25;40.14;100401.97;5066256;28;1320;-61
2022/05/29 10:21:07;;;;;;;;;;;;;;;16.21;40.15;100406.38;5073848;28;1246;-60
2022/05/29 10:23:34;;;;;;;;;;;;;;;16.18;40.51;100398.72;5064759;28;1986;-61
2022/05/29 10:26:20;;;;;;;;;;;;;;;16.15;40.32;100396.53;5051007;28;1265;-60
2022/05/29 10:28:45;;;;;;;;;;;;;;;16.15;40.23;100402.00;5052227;28;1191;-60
2022/05/29 10:31:19;;;;;;;;;;;;;;;16.19;40.36;100403.09;5066668;28;1174;-61
2022/05/29 10:33:58;;;;;;;;;;;;;;;16.15;40.53;100393.78;5037685;28;964;-60
2022/05/29 10:36:26;;;;;;;;;;;;;;;16.06;40.51;100394.38;5061284;28;835;-61
2022/05/29 10:38:51;;;;;;;;;;;;;;;16.10;40.50;100391.88;5049561;28;1284;-59
2022/05/29 10:41:30;;;;;;;;;;;;;;;16.13;40.10;100382.25;5025451;28;1352;-60
2022/05/29 10:43:56;;;;;;;;;;;;;;;16.11;40.24;100357.84;5075898;28;1905;-60
2022/05/29 10:46:22;;;;;;;;;;;;;;;16.07;40.38;100357.63;5071418;28;1349;-60
2022/05/29 10:49:00;;;;;;;;;;;;;;;16.12;40.59;100365.00;5070086;28;1499;-58
2022/05/29 10:51:33;;;;;;;;;;;;;;;16.22;40.90;100364.13;5073434;28;1365;-58
2022/05/29 10:53:59;;;;;;;;;;;;;;;16.28;40.96;100359.44;5047602;28;1406;-59
2022/05/29 10:56:25;;;;;;;;;;;;;;;16.24;41.08;100356.44;5066438;28;847;-59
2022/05/29 10:58:57;;;;;;;;;;;;;;;16.29;41.02;100348.19;5060516;28;860;-60
2022/05/29 11:04:06;;;;;;;;;;;;;;;16.25;41.50;100336.94;5059386;28;1972;-59
2022/05/29 11:06:44;;;;;;;;;;;;;;;16.31;41.66;100331.44;5068002;28;953;-60
2022/05/29 11:09:28;;;;;;;;;;;;;;;16.32;41.68;100320.16;5041905;28;774;-60
2022/05/29 11:11:57;;;;;;;;;;;;;;;16.28;41.63;100324.56;5073588;28;768;-57
2022/05/29 11:14:31;;;;;;;;;;;;;;;16.30;41.59;100316.91;5078372;28;1044;-60
2022/05/29 11:17:03;;;;;;;;;;;;;;;16.25;41.66;100308.69;5052754;28;1283;-60
2022/05/29 11:19:47;;;;;;;;;;;;;;;16.32;41.60;100298.22;5069514;28;857;-59
2022/05/29 11:22:12;;;;;;;;;;;;;;;16.37;41.51;100297.38;5064042;28;796;-59
2022/05/29 11:24:59;;;;;;;;;;;;;;;16.30;41.54;100294.97;5060390;28;1906;-60
2022/05/29 11:27:40;;;;;;;;;;;;;;;16.37;41.41;100300.94;5055515;28;738;-59
2022/05/29 11:30:08;;;;;;;;;;;;;;;16.36;41.32;100282.84;5064947;28;1037;-59
2022/05/29 11:32:55;;;;;;;;;;;;;;;16.37;41.39;100300.13;5064008;28;836;-62
2022/05/29 11:35:31;;;;;;;;;;;;;;;16.36;41.58;100288.31;5040979;28;897;-61
2022/05/29 11:38:03;;;;;;;;;;;;;;;16.37;41.28;100289.16;5052717;28;854;-61
2022/05/29 11:40:34;;;;;;;;;;;;;;;16.37;41.69;100284.47;5077723;28;782;-61
2022/05/29 11:43:02;;;;;;;;;;;;;;;16.33;41.46;100288.09;5040330;28;1124;-61
2022/05/29 11:51:06;;;;;;;;;;;;;;;16.36;41.65;100293.81;5059749;28;1910;-60
2022/05/29 11:51:18;;;;;;;;;;;;;;;16.48;41.29;100289.88;5061443;28;823;-60
2022/05/29 11:53:46;;;;;;;;;;;;;;;16.49;41.73;100297.03;5072440;28;1449;-61
2022/05/29 11:56:15;;;;;;;;;;;;;;;16.47;41.54;100289.09;5077853;28;766;-60
2022/05/29 11:58:47;;;;;;;;;;;;;;;16.45;41.95;100279.50;5051695;28;872;-59
2022/05/29 12:01:15;;;;;;;;;;;;;;;16.49;41.47;100280.56;5046997;28;1109;-56
2022/05/29 12:03:47;;;;;;;;;;;;;;;16.54;41.69;100277.78;5061916;28;1978;-57
2022/05/29 12:06:19;;;;;;;;;;;;;;;16.56;41.70;100275.56;5024392;28;778;-57
2022/05/29 12:08:44;;;;;;;;;;;;;;;16.50;41.97;100269.28;5058071;28;822;-57
2022/05/29 12:11:15;;;;;;;;;;;;;;;16.55;41.91;100262.94;5059396;28;834;-58
2022/05/29 12:13:49;;;;;;;;;;;;;;;16.55;42.08;100265.69;5058500;28;854;-57
2022/05/29 12:16:26;;;;;;;;;;;;;;;16.54;42.06;100255.84;5021999;28;824;-58
2022/05/29 12:18:52;;;;;;;;;;;;;;;16.56;41.90;100251.69;5018780;28;833;-58
2022/05/29 12:21:24;;;;;;;;;;;;;;;16.57;41.89;100253.31;5018940;28;1356;-57
2022/05/29 12:23:50;;;;;;;;;;;;;;;16.62;41.94;100257.97;5038432;28;1910;-58
2022/05/29 12:26:21;;;;;;;;;;;;;;;16.54;41.96;100266.81;5017311;28;815;-58
2022/05/29 12:29:05;;;;;;;;;;;;;;;16.57;41.74;100263.50;5017375;28;799;-59
2022/05/29 12:31:34;;;;;;;;;;;;;;;16.60;41.80;100258.22;5023621;28;738;-59
2022/05/29 12:33:59;;;;;;;;;;;;;;;16.58;41.78;100254.97;5032792;28;816;-58
2022/05/29 12:36:43;;;;;;;;;;;;;;;16.61;41.61;100259.06;5027653;28;852;-58
2022/05/29 12:39:09;;;;;;;;;;;;;;;16.62;41.78;100259.88;5018016;28;812;-59
2022/05/29 12:41:40;;;;;;;;;;;;;;;16.60;41.71;100260.16;5017936;28;774;-58
2022/05/29 12:44:18;;;;;;;;;;;;;;;16.64;41.38;100260.44;5017708;28;1918;-58
2022/05/29 12:47:06;;;;;;;;;;;;;;;16.58;41.82;100254.16;5018859;28;837;-59
2022/05/29 12:49:44;;;;;;;;;;;;;;;16.67;41.61;100248.88;5022946;28;783;-58
2022/05/29 12:52:14;;;;;;;;;;;;;;;16.60;41.66;100246.44;5016281;28;1121;-58
2022/05/29 12:54:45;;;;;;;;;;;;;;;16.63;41.48;100248.59;5017902;28;771;-59
2022/05/29 12:57:24;;;;;;;;;;;;;;;16.65;41.38;100246.41;5017648;28;870;-58
2022/05/29 13:00:08;;;;;;;;;;;;;;;16.63;41.66;100243.13;5017858;28;723;-57
2022/05/29 13:02:46;;;;;;;;;;;;;;;16.68;41.48;100245.84;5023663;28;859;-57
2022/05/29 13:05:30;;;;;;;;;;;;;;;16.67;41.44;100243.38;5015794;28;1981;-58
2022/05/29 13:08:11;;;;;;;;;;;;;;;16.64;41.59;100242.00;5017587;28;754;-58
2022/05/29 13:10:37;;;;;;;;;;;;;;;16.63;41.87;100234.88;5017913;28;782;-58
2022/05/29 13:13:08;;;;;;;;;;;;;;;16.62;41.90;100230.53;5016620;28;819;-58
2022/05/29 13:15:34;;;;;;;;;;;;;;;16.71;41.94;100217.78;5037618;28;1057;-57
2022/05/29 13:18:04;;;;;;;;;;;;;;;16.72;41.80;100213.94;5052750;28;1389;-57
2022/05/29 13:20:29;;;;;;;;;;;;;;;16.71;41.93;100215.06;5055628;28;959;-56
2022/05/29 13:22:59;;;;;;;;;;;;;;;16.71;41.76;100222.47;5036998;28;922;-59
2022/05/29 13:25:26;;;;;;;;;;;;;;;16.67;41.81;100227.72;5056237;28;1918;-59
2022/05/29 13:27:52;;;;;;;;;;;;;;;16.70;41.81;100243.59;5048656;28;841;-57
2022/05/29 13:30:36;;;;;;;;;;;;;;;16.66;41.43;100242.56;5037685;28;828;-57
2022/05/29 13:33:20;;;;;;;;;;;;;;;16.71;41.57;100234.28;5036988;28;783;-57
2022/05/29 13:35:45;;;;;;;;;;;;;;;16.68;41.67;100231.28;5037133;28;694;-58
2022/05/29 13:38:11;;;;;;;;;;;;;;;16.68;41.71;100239.53;5036752;28;795;-59
2022/05/29 13:40:37;;;;;;;;;;;;;;;16.66;41.53;100237.06;5038788;28;1133;-58